Time;durP1;ratioP1;P1;durP2;ratioP2;P2;SDS_P1;SDS_P2;PMS_P1;PMS_P2;Temp;Humidity;BMP_temperature;BMP_pressure;BME280_temperature;BME280_humidity;BME280_pressure;Samples;Min_cycle;Max_cycle;Signal;HPM_P1;HPM_P2
2021/06/13 00:02:21;;;;;;;5.10;4.40;;;;;;;;;;5078101;28;20181;-74
2021/06/13 00:04:47;;;;;;;5.38;4.85;;;;;;;;;;5080560;28;20445;-74
2021/06/13 00:07:13;;;;;;;4.53;3.90;;;;;;;;;;5079835;28;20180;-74
2021/06/13 00:09:40;;;;;;;4.10;3.72;;;;;;;;;;5079947;28;20215;-74
2021/06/13 00:12:07;;;;;;;4.25;3.85;;;;;;;;;;5082055;28;20172;-74
2021/06/13 00:14:33;;;;;;;6.80;4.65;;;;;;;;;;5080826;28;20192;-74
2021/06/13 00:16:59;;;;;;;4.77;4.00;;;;;;;;;;5079576;28;20195;-74
2021/06/13 00:19:25;;;;;;;6.35;4.05;;;;;;;;;;5079553;28;20494;-74
2021/06/13 00:21:51;;;;;;;4.32;3.70;;;;;;;;;;5080546;28;20176;-74
2021/06/13 00:24:17;;;;;;;4.67;4.00;;;;;;;;;;5082332;28;20278;-74
2021/06/13 00:26:43;;;;;;;4.82;3.88;;;;;;;;;;5082126;28;20442;-75
2021/06/13 00:29:09;;;;;;;4.30;3.90;;;;;;;;;;5078024;28;20188;-74
2021/06/13 00:31:36;;;;;;;3.90;3.60;;;;;;;;;;5077936;28;20188;-74
2021/06/13 00:34:02;;;;;;;4.75;4.28;;;;;;;;;;5079160;28;20466;-74
2021/06/13 00:36:28;;;;;;;5.38;3.90;;;;;;;;;;5080775;28;20272;-74
2021/06/13 00:38:54;;;;;;;4.27;3.70;;;;;;;;;;5082649;28;20176;-74
2021/06/13 00:41:21;;;;;;;4.07;3.67;;;;;;;;;;5078459;28;20529;-74
2021/06/13 00:43:47;;;;;;;4.22;3.83;;;;;;;;;;5078437;28;20188;-74
2021/06/13 00:46:13;;;;;;;4.70;3.63;;;;;;;;;;5078145;28;20223;-74
2021/06/13 00:48:39;;;;;;;6.50;4.88;;;;;;;;;;5078471;28;21006;-74
2021/06/13 00:51:05;;;;;;;4.43;4.03;;;;;;;;;;5080826;28;20177;-75
2021/06/13 00:53:31;;;;;;;5.13;3.88;;;;;;;;;;5080270;28;20204;-74
2021/06/13 00:55:58;;;;;;;4.20;3.80;;;;;;;;;;5079176;28;20184;-74
2021/06/13 00:58:24;;;;;;;4.50;4.10;;;;;;;;;;5078260;28;20454;-74
2021/06/13 01:00:50;;;;;;;4.05;3.50;;;;;;;;;;5078914;28;20635;-74
2021/06/13 01:03:16;;;;;;;5.13;4.32;;;;;;;;;;5082189;28;20979;-74
2021/06/13 01:05:42;;;;;;;4.25;3.33;;;;;;;;;;5080591;28;20177;-74
2021/06/13 01:08:24;;;;;;;5.07;4.15;;;;;;;;;;5079551;28;20263;-74
2021/06/13 01:11:08;;;;;;;3.92;3.53;;;;;;;;;;5081413;28;20195;-74
2021/06/13 01:13:37;;;;;;;4.10;3.40;;;;;;;;;;5082227;28;20199;-74
2021/06/13 01:16:22;;;;;;;4.90;3.83;;;;;;;;;;5082940;28;20184;-74
2021/06/13 01:18:57;;;;;;;5.03;3.90;;;;;;;;;;5079860;28;20189;-74
2021/06/13 01:21:25;;;;;;;5.15;3.80;;;;;;;;;;5083703;28;20199;-74
2021/06/13 01:23:51;;;;;;;3.97;3.45;;;;;;;;;;5085629;28;20187;-74
2021/06/13 01:26:35;;;;;;;4.03;3.60;;;;;;;;;;5082786;28;20200;-74
2021/06/13 01:29:08;;;;;;;5.07;4.15;;;;;;;;;;5082909;28;20372;-74
2021/06/13 01:31:38;;;;;;;6.10;3.53;;;;;;;;;;5080785;28;20184;-74
2021/06/13 01:34:08;;;;;;;4.55;4.05;;;;;;;;;;5083800;28;20207;-74
2021/06/13 01:36:35;;;;;;;4.20;3.53;;;;;;;;;;5093007;28;20211;-74
2021/06/13 01:39:02;;;;;;;3.78;3.38;;;;;;;;;;5082964;28;20180;-74
2021/06/13 01:41:30;;;;;;;4.53;3.53;;;;;;;;;;5081143;28;20215;-74
2021/06/13 01:43:57;;;;;;;5.80;4.65;;;;;;;;;;5082509;28;20194;-74
2021/06/13 01:46:24;;;;;;;4.93;3.45;;;;;;;;;;5080709;28;20229;-74
2021/06/13 01:48:52;;;;;;;3.70;3.20;;;;;;;;;;5081063;28;20242;-74
2021/06/13 01:51:18;;;;;;;4.13;3.63;;;;;;;;;;5082376;28;20247;-74
2021/06/13 01:53:45;;;;;;;6.50;3.70;;;;;;;;;;5083914;28;20219;-74
2021/06/13 01:56:13;;;;;;;3.72;3.33;;;;;;;;;;5084133;28;20199;-74
2021/06/13 01:58:39;;;;;;;4.13;3.83;;;;;;;;;;5082038;28;20586;-74
2021/06/13 02:01:07;;;;;;;4.15;3.60;;;;;;;;;;5083459;28;20180;-74
2021/06/13 02:03:35;;;;;;;4.30;3.70;;;;;;;;;;5076522;28;20187;-74
2021/06/13 02:06:02;;;;;;;4.30;3.88;;;;;;;;;;5082222;28;20354;-74
2021/06/13 02:08:30;;;;;;;4.07;3.70;;;;;;;;;;5080871;28;20226;-74
2021/06/13 02:10:56;;;;;;;4.72;3.80;;;;;;;;;;5080839;28;20195;-74
2021/06/13 02:13:23;;;;;;;6.38;4.13;;;;;;;;;;5081337;28;20201;-74
2021/06/13 02:15:49;;;;;;;5.03;4.30;;;;;;;;;;5082777;28;20252;-74
2021/06/13 02:18:15;;;;;;;4.80;4.30;;;;;;;;;;5084004;28;20198;-74
2021/06/13 02:20:42;;;;;;;5.57;4.53;;;;;;;;;;5083230;28;20419;-74
2021/06/13 02:23:08;;;;;;;5.47;4.90;;;;;;;;;;5078956;28;20184;-74
2021/06/13 02:25:34;;;;;;;4.90;4.30;;;;;;;;;;5081893;28;20184;-74
2021/06/13 02:28:01;;;;;;;5.22;4.28;;;;;;;;;;5081828;28;20177;-74
2021/06/13 02:30:31;;;;;;;5.85;4.30;;;;;;;;;;5082286;28;20430;-74
2021/06/13 02:32:59;;;;;;;5.30;4.43;;;;;;;;;;5084345;28;20175;-74
2021/06/13 02:35:30;;;;;;;5.20;4.70;;;;;;;;;;5085543;28;20212;-74
2021/06/13 02:37:57;;;;;;;5.25;4.30;;;;;;;;;;5083081;28;20210;-74
2021/06/13 02:40:23;;;;;;;4.32;3.90;;;;;;;;;;5083145;28;20243;-74
2021/06/13 02:42:49;;;;;;;4.00;3.60;;;;;;;;;;5082569;28;20191;-74
2021/06/13 02:45:17;;;;;;;5.87;4.30;;;;;;;;;;5084090;28;20172;-74
2021/06/13 02:47:44;;;;;;;4.78;4.38;;;;;;;;;;5082226;28;20462;-74
2021/06/13 02:50:11;;;;;;;4.30;3.88;;;;;;;;;;5080934;28;20243;-74
2021/06/13 02:52:57;;;;;;;5.00;4.05;;;;;;;;;;5079385;28;20191;-75
2021/06/13 02:55:25;;;;;;;5.20;4.25;;;;;;;;;;5080123;28;20724;-74
2021/06/13 02:58:04;;;;;;;6.18;3.65;;;;;;;;;;5081846;28;20212;-74
2021/06/13 03:00:30;;;;;;;4.45;3.92;;;;;;;;;;5081481;28;20640;-74
2021/06/13 03:02:58;;;;;;;4.10;3.70;;;;;;;;;;5081439;28;20179;-74
2021/06/13 03:05:25;;;;;;;5.60;3.70;;;;;;;;;;5081241;28;20184;-74
2021/06/13 03:07:51;;;;;;;8.25;4.10;;;;;;;;;;5078894;28;20252;-74
2021/06/13 03:10:18;;;;;;;4.22;3.70;;;;;;;;;;5082625;28;20188;-74
2021/06/13 03:12:44;;;;;;;4.72;3.85;;;;;;;;;;5080607;28;20223;-74
2021/06/13 03:15:11;;;;;;;4.47;4.03;;;;;;;;;;5081247;28;20238;-74
2021/06/13 03:17:37;;;;;;;4.03;3.63;;;;;;;;;;5081754;28;20173;-74
2021/06/13 03:20:04;;;;;;;3.30;2.85;;;;;;;;;;5064007;28;20200;-74
2021/06/13 03:22:31;;;;;;;4.00;3.60;;;;;;;;;;5080136;28;20199;-74
2021/06/13 03:24:59;;;;;;;4.72;4.25;;;;;;;;;;5080815;28;20237;-74
2021/06/13 03:27:25;;;;;;;4.22;3.83;;;;;;;;;;5081108;28;20199;-74
2021/06/13 03:29:52;;;;;;;4.82;4.22;;;;;;;;;;5081788;28;20242;-74
2021/06/13 03:32:18;;;;;;;4.30;3.78;;;;;;;;;;5076413;28;20701;-74
2021/06/13 03:34:46;;;;;;;4.80;4.28;;;;;;;;;;5079114;28;20207;-74
2021/06/13 03:37:12;;;;;;;4.88;4.38;;;;;;;;;;5085545;28;20253;-74
2021/06/13 03:39:39;;;;;;;3.95;3.55;;;;;;;;;;5080451;28;20187;-74
2021/06/13 03:42:06;;;;;;;5.25;4.65;;;;;;;;;;5083503;28;20169;-74
2021/06/13 03:44:33;;;;;;;4.65;4.20;;;;;;;;;;5096212;28;20187;-75
2021/06/13 03:46:59;;;;;;;4.18;3.58;;;;;;;;;;5080046;28;20239;-74
2021/06/13 03:49:25;;;;;;;3.78;3.45;;;;;;;;;;5079054;28;20184;-74
2021/06/13 03:51:52;;;;;;;5.47;4.60;;;;;;;;;;5079692;28;20303;-74
2021/06/13 03:54:18;;;;;;;5.43;4.82;;;;;;;;;;5081100;28;20476;-74
2021/06/13 03:56:51;;;;;;;4.65;4.25;;;;;;;;;;5080591;28;20183;-74
2021/06/13 03:59:19;;;;;;;4.38;3.97;;;;;;;;;;5079357;28;20178;-74
2021/06/13 04:01:46;;;;;;;5.30;3.80;;;;;;;;;;5079905;28;20194;-73
2021/06/13 04:04:13;;;;;;;4.05;3.72;;;;;;;;;;5079410;28;20202;-74
2021/06/13 04:06:42;;;;;;;7.13;4.80;;;;;;;;;;5079934;28;20195;-74
2021/06/13 04:09:09;;;;;;;4.40;4.00;;;;;;;;;;5081607;28;20205;-74
2021/06/13 04:11:36;;;;;;;3.95;3.60;;;;;;;;;;5081035;28;20176;-73
2021/06/13 04:14:04;;;;;;;4.70;4.00;;;;;;;;;;5080989;28;20214;-73
2021/06/13 04:16:30;;;;;;;3.50;3.10;;;;;;;;;;5078517;28;20191;-73
2021/06/13 04:18:56;;;;;;;5.40;3.78;;;;;;;;;;5080394;28;20240;-73
2021/06/13 04:21:23;;;;;;;5.22;3.78;;;;;;;;;;5081912;28;20169;-74
2021/06/13 04:23:49;;;;;;;4.10;3.70;;;;;;;;;;5082241;28;20240;-74
2021/06/13 04:26:17;;;;;;;4.28;3.88;;;;;;;;;;5081465;28;20181;-74
2021/06/13 04:28:44;;;;;;;5.95;4.38;;;;;;;;;;5079705;28;20245;-74
2021/06/13 04:31:12;;;;;;;4.10;3.55;;;;;;;;;;5079146;28;20191;-74
2021/06/13 04:33:38;;;;;;;3.97;3.58;;;;;;;;;;5078590;28;20200;-74
2021/06/13 04:36:04;;;;;;;4.13;3.72;;;;;;;;;;5083536;28;20175;-74
2021/06/13 04:38:31;;;;;;;6.63;3.50;;;;;;;;;;5082128;28;20254;-74
2021/06/13 04:40:57;;;;;;;5.20;4.57;;;;;;;;;;5078134;28;20208;-74
2021/06/13 04:43:23;;;;;;;5.97;4.30;;;;;;;;;;5077708;28;20179;-74
2021/06/13 04:45:49;;;;;;;5.63;4.25;;;;;;;;;;5084108;28;20266;-74
2021/06/13 04:48:15;;;;;;;6.10;3.97;;;;;;;;;;5084685;28;20242;-74
2021/06/13 04:50:41;;;;;;;4.40;4.00;;;;;;;;;;5085277;28;20529;-74
2021/06/13 04:53:29;;;;;;;4.07;3.78;;;;;;;;;;5083279;28;20434;-74
2021/06/13 04:55:57;;;;;;;4.03;3.25;;;;;;;;;;5081678;28;20645;-74
2021/06/13 04:58:24;;;;;;;4.38;3.95;;;;;;;;;;5084215;28;20453;-74
2021/06/13 05:00:51;;;;;;;3.88;3.53;;;;;;;;;;5082453;28;20193;-74
2021/06/13 05:03:17;;;;;;;3.88;3.53;;;;;;;;;;5083772;28;20183;-74
2021/06/13 05:05:43;;;;;;;5.53;4.38;;;;;;;;;;5084954;28;20338;-74
2021/06/13 05:08:09;;;;;;;4.05;3.65;;;;;;;;;;5083842;28;20356;-74
2021/06/13 05:10:35;;;;;;;4.70;4.20;;;;;;;;;;5083274;28;20229;-74
2021/06/13 05:13:01;;;;;;;5.28;4.40;;;;;;;;;;5083488;28;20563;-73
2021/06/13 05:15:28;;;;;;;5.43;4.60;;;;;;;;;;5082483;28;20224;-74
2021/06/13 05:17:54;;;;;;;7.00;4.53;;;;;;;;;;5086086;28;20437;-74
2021/06/13 05:20:20;;;;;;;6.33;4.80;;;;;;;;;;5081649;28;20218;-74
2021/06/13 05:22:53;;;;;;;5.30;4.40;;;;;;;;;;5083147;28;20430;-74
2021/06/13 05:25:19;;;;;;;4.90;4.25;;;;;;;;;;5082538;28;20184;-75
2021/06/13 05:27:45;;;;;;;4.63;3.97;;;;;;;;;;5082521;28;20192;-75
2021/06/13 05:30:12;;;;;;;4.97;3.72;;;;;;;;;;5085331;28;20181;-75
2021/06/13 05:32:38;;;;;;;7.20;4.60;;;;;;;;;;5084415;28;20199;-75
2021/06/13 05:35:04;;;;;;;6.30;4.40;;;;;;;;;;5080784;28;20193;-75
2021/06/13 05:37:30;;;;;;;5.53;4.65;;;;;;;;;;5083282;28;20423;-75
2021/06/13 05:39:56;;;;;;;5.80;4.53;;;;;;;;;;5082612;28;20640;-75
2021/06/13 05:42:22;;;;;;;5.13;4.40;;;;;;;;;;5084030;28;20399;-75
2021/06/13 05:44:48;;;;;;;5.13;4.63;;;;;;;;;;5094992;28;20423;-75
2021/06/13 05:47:14;;;;;;;8.10;5.67;;;;;;;;;;5084175;28;20470;-76
2021/06/13 05:49:40;;;;;;;8.00;4.70;;;;;;;;;;5080985;28;20470;-76
2021/06/13 05:52:06;;;;;;;5.10;4.50;;;;;;;;;;5082676;28;20441;-76
2021/06/13 05:54:33;;;;;;;5.60;4.65;;;;;;;;;;5092972;28;20511;-76
2021/06/13 05:57:00;;;;;;;8.05;4.47;;;;;;;;;;5084688;28;20172;-76
2021/06/13 05:59:26;;;;;;;9.15;5.25;;;;;;;;;;5081960;28;20260;-76
2021/06/13 06:01:52;;;;;;;5.10;4.60;;;;;;;;;;5080713;28;20185;-75
2021/06/13 06:04:18;;;;;;;5.33;4.10;;;;;;;;;;5080152;28;20621;-75
2021/06/13 06:06:44;;;;;;;6.30;4.37;;;;;;;;;;5082077;28;20912;-75
2021/06/13 06:09:10;;;;;;;5.47;4.00;;;;;;;;;;5083421;28;20423;-76
2021/06/13 06:11:41;;;;;;;4.43;3.80;;;;;;;;;;5083798;28;20418;-76
2021/06/13 06:14:08;;;;;;;7.50;4.60;;;;;;;;;;5082900;28;20477;-75
2021/06/13 06:16:33;;;;;;;7.03;4.22;;;;;;;;;;5081150;28;20219;-75
2021/06/13 06:19:00;;;;;;;6.77;3.87;;;;;;;;;;5082068;28;20177;-75
2021/06/13 06:21:26;;;;;;;3.80;3.50;;;;;;;;;;5082415;28;20465;-75
2021/06/13 06:23:53;;;;;;;5.27;3.60;;;;;;;;;;5091123;28;20184;-74
2021/06/13 06:26:19;;;;;;;4.90;4.10;;;;;;;;;;5080544;28;20439;-74
2021/06/13 06:28:45;;;;;;;4.80;3.70;;;;;;;;;;5077470;28;20187;-74
2021/06/13 06:31:11;;;;;;;4.43;3.42;;;;;;;;;;5082258;28;20188;-74
2021/06/13 06:33:37;;;;;;;6.97;3.58;;;;;;;;;;5082355;28;20673;-73
2021/06/13 06:36:04;;;;;;;5.82;3.75;;;;;;;;;;5080790;28;20189;-74
2021/06/13 06:38:30;;;;;;;5.45;3.10;;;;;;;;;;5080472;28;20200;-76
2021/06/13 06:40:58;;;;;;;4.75;3.45;;;;;;;;;;5081726;28;20260;-74
2021/06/13 06:43:24;;;;;;;3.97;2.95;;;;;;;;;;5080097;28;20244;-73
2021/06/13 06:45:50;;;;;;;4.05;2.80;;;;;;;;;;5078780;28;20268;-74
2021/06/13 06:48:16;;;;;;;3.28;2.97;;;;;;;;;;5081491;28;20216;-75
2021/06/13 06:50:43;;;;;;;3.13;2.92;;;;;;;;;;5082393;28;20190;-74
2021/06/13 06:53:09;;;;;;;9.10;3.60;;;;;;;;;;5075290;28;20197;-75
2021/06/13 06:55:35;;;;;;;4.75;3.67;;;;;;;;;;5078820;28;20205;-75
2021/06/13 06:58:01;;;;;;;4.15;3.08;;;;;;;;;;5082105;28;20192;-75
2021/06/13 07:00:27;;;;;;;3.55;3.15;;;;;;;;;;5078590;28;20312;-74
2021/06/13 07:02:53;;;;;;;3.45;3.15;;;;;;;;;;5080434;28;20657;-75
2021/06/13 07:05:19;;;;;;;5.10;3.47;;;;;;;;;;5077729;28;20240;-76
2021/06/13 07:07:45;;;;;;;2.92;2.65;;;;;;;;;;5074712;28;20278;-74
2021/06/13 07:10:12;;;;;;;3.00;2.70;;;;;;;;;;5069922;28;20189;-75
2021/06/13 07:12:38;;;;;;;4.95;3.00;;;;;;;;;;5080277;28;20191;-75
2021/06/13 07:15:05;;;;;;;4.07;2.22;;;;;;;;;;5080179;28;20205;-74
2021/06/13 07:17:31;;;;;;;5.00;3.10;;;;;;;;;;5080770;28;20177;-75
2021/06/13 07:19:57;;;;;;;6.17;2.93;;;;;;;;;;5080336;28;20249;-75
2021/06/13 07:22:23;;;;;;;4.67;2.50;;;;;;;;;;5079724;28;20441;-74
2021/06/13 07:24:50;;;;;;;2.35;2.15;;;;;;;;;;5078773;28;20486;-75
2021/06/13 07:27:16;;;;;;;3.55;3.22;;;;;;;;;;5081220;28;20182;-75
2021/06/13 07:29:42;;;;;;;2.80;1.92;;;;;;;;;;5081510;28;20263;-76
2021/06/13 07:32:08;;;;;;;3.67;2.35;;;;;;;;;;5080011;28;20249;-75
2021/06/13 07:34:34;;;;;;;2.95;1.88;;;;;;;;;;5080819;28;20211;-76
2021/06/13 07:37:02;;;;;;;4.33;2.37;;;;;;;;;;5080364;28;20182;-76
2021/06/13 07:39:29;;;;;;;2.50;2.30;;;;;;;;;;5074681;28;20448;-75
2021/06/13 07:41:55;;;;;;;3.97;2.40;;;;;;;;;;5082938;28;20527;-75
2021/06/13 07:44:21;;;;;;;3.33;2.25;;;;;;;;;;5078763;28;20280;-75
2021/06/13 07:46:47;;;;;;;4.97;2.80;;;;;;;;;;5081308;28;20363;-73
2021/06/13 07:49:13;;;;;;;3.03;2.30;;;;;;;;;;5077563;28;20462;-75
2021/06/13 07:51:39;;;;;;;2.42;2.20;;;;;;;;;;5079427;28;20427;-74
2021/06/13 07:54:05;;;;;;;4.50;2.60;;;;;;;;;;5081412;28;20202;-75
2021/06/13 07:56:31;;;;;;;7.67;3.30;;;;;;;;;;5079567;28;20942;-76
2021/06/13 07:58:57;;;;;;;2.57;2.20;;;;;;;;;;5078609;28;20438;-76
2021/06/13 08:01:23;;;;;;;2.80;2.20;;;;;;;;;;5077643;28;20450;-75
2021/06/13 08:03:49;;;;;;;3.70;2.53;;;;;;;;;;5080524;28;20438;-75
2021/06/13 08:06:15;;;;;;;4.60;1.90;;;;;;;;;;5077139;28;20398;-76
2021/06/13 08:08:41;;;;;;;3.47;2.30;;;;;;;;;;5079943;28;20845;-76
2021/06/13 08:11:08;;;;;;;2.43;2.20;;;;;;;;;;5088549;28;21002;-75
2021/06/13 08:13:34;;;;;;;3.00;2.30;;;;;;;;;;5079928;28;20417;-75
2021/06/13 08:16:00;;;;;;;2.30;2.00;;;;;;;;;;5079657;28;20555;-75
2021/06/13 08:18:26;;;;;;;4.43;2.10;;;;;;;;;;5081510;28;20409;-76
2021/06/13 08:20:54;;;;;;;3.23;1.83;;;;;;;;;;5081899;28;20461;-76
2021/06/13 08:23:19;;;;;;;2.77;2.00;;;;;;;;;;5079953;28;20426;-76
2021/06/13 08:25:46;;;;;;;3.73;2.20;;;;;;;;;;5079117;28;20412;-74
2021/06/13 08:28:12;;;;;;;3.23;2.40;;;;;;;;;;5084754;28;20460;-75
2021/06/13 08:30:38;;;;;;;4.30;2.80;;;;;;;;;;5079431;28;20441;-76
2021/06/13 08:33:04;;;;;;;3.27;1.70;;;;;;;;;;5082641;28;20397;-77
2021/06/13 08:35:30;;;;;;;5.00;2.53;;;;;;;;;;5081483;28;20440;-75
2021/06/13 08:37:59;;;;;;;4.60;2.17;;;;;;;;;;5080016;28;20434;-74
2021/06/13 08:40:25;;;;;;;5.53;2.27;;;;;;;;;;5079557;28;20426;-75
2021/06/13 08:42:51;;;;;;;3.13;2.03;;;;;;;;;;5080028;28;20437;-74
2021/06/13 08:45:17;;;;;;;2.47;2.10;;;;;;;;;;5082050;28;20427;-75
2021/06/13 08:47:44;;;;;;;2.20;1.80;;;;;;;;;;5081889;28;20824;-74
2021/06/13 08:50:10;;;;;;;3.03;2.10;;;;;;;;;;5078992;28;20412;-76
2021/06/13 08:52:37;;;;;;;2.80;2.20;;;;;;;;;;5079626;28;20476;-76
2021/06/13 08:55:05;;;;;;;2.23;2.03;;;;;;;;;;5079337;28;20441;-74
2021/06/13 08:57:31;;;;;;;3.10;2.10;;;;;;;;;;5079898;28;20413;-75
2021/06/13 08:59:57;;;;;;;5.73;2.33;;;;;;;;;;5083660;28;20385;-74
2021/06/13 09:02:23;;;;;;;2.70;1.40;;;;;;;;;;5079332;28;20525;-76
2021/06/13 09:04:49;;;;;;;3.83;2.07;;;;;;;;;;5077868;28;20445;-76
2021/06/13 09:07:16;;;;;;;2.37;1.80;;;;;;;;;;5079015;28;20448;-75
2021/06/13 09:09:42;;;;;;;3.17;2.43;;;;;;;;;;5081016;28;20409;-75
2021/06/13 09:12:09;;;;;;;4.73;2.40;;;;;;;;;;5082209;28;20529;-75
2021/06/13 09:14:47;;;;;;;2.00;1.70;;;;;;;;;;5080841;28;20466;-76
2021/06/13 09:17:18;;;;;;;6.80;2.60;;;;;;;;;;5079315;28;20434;-72
2021/06/13 09:20:04;;;;;;;2.20;2.00;;;;;;;;;;5081088;28;20405;-74
2021/06/13 09:22:30;;;;;;;2.17;1.80;;;;;;;;;;5077806;28;20424;-74
2021/06/13 09:25:08;;;;;;;7.10;2.30;;;;;;;;;;5079510;28;20420;-74
2021/06/13 09:27:34;;;;;;;2.37;2.00;;;;;;;;;;5074404;28;20423;-73
2021/06/13 09:30:00;;;;;;;3.97;1.90;;;;;;;;;;5083733;28;20429;-74
2021/06/13 09:32:27;;;;;;;3.73;2.10;;;;;;;;;;5079765;28;20504;-74
2021/06/13 09:35:11;;;;;;;4.30;2.27;;;;;;;;;;5082072;28;20964;-74
2021/06/13 09:37:57;;;;;;;3.17;2.13;;;;;;;;;;5082414;28;20457;-73
2021/06/13 09:40:27;;;;;;;2.67;2.03;;;;;;;;;;5075192;28;20449;-75
2021/06/13 09:42:53;;;;;;;2.73;2.53;;;;;;;;;;5082649;28;20434;-75
2021/06/13 09:45:19;;;;;;;2.07;1.90;;;;;;;;;;5083138;28;20426;-75
2021/06/13 09:47:46;;;;;;;3.50;2.37;;;;;;;;;;5085421;28;20462;-76
2021/06/13 09:50:12;;;;;;;4.07;2.70;;;;;;;;;;5082176;28;20413;-75
2021/06/13 09:52:38;;;;;;;4.13;1.90;;;;;;;;;;5082516;28;20406;-76
2021/06/13 09:55:10;;;;;;;3.30;2.17;;;;;;;;;;5082330;28;20462;-77
2021/06/13 09:57:56;;;;;;;4.00;1.97;;;;;;;;;;5092780;28;20894;-77
2021/06/13 10:00:23;;;;;;;4.57;2.17;;;;;;;;;;5084222;28;20940;-77
2021/06/13 10:02:49;;;;;;;4.13;2.10;;;;;;;;;;5093827;28;20469;-75
2021/06/13 10:05:15;;;;;;;2.23;1.87;;;;;;;;;;5081205;28;20605;-76
2021/06/13 10:07:41;;;;;;;5.97;2.20;;;;;;;;;;5082052;28;20453;-75
2021/06/13 10:10:08;;;;;;;2.63;1.83;;;;;;;;;;5082025;28;20431;-76
2021/06/13 10:12:36;;;;;;;4.23;2.23;;;;;;;;;;5092847;28;20434;-77
2021/06/13 10:15:12;;;;;;;4.37;2.00;;;;;;;;;;5081588;28;20963;-77
2021/06/13 10:17:38;;;;;;;4.30;2.53;;;;;;;;;;5080141;28;20422;-76
2021/06/13 10:20:04;;;;;;;5.43;2.10;;;;;;;;;;5081818;28;20393;-75
2021/06/13 10:22:30;;;;;;;6.20;2.10;;;;;;;;;;5081588;28;20441;-76
2021/06/13 10:24:57;;;;;;;2.70;2.50;;;;;;;;;;5082993;28;20410;-75
2021/06/13 10:27:23;;;;;;;3.43;2.20;;;;;;;;;;5081481;28;20979;-77
2021/06/13 10:29:50;;;;;;;4.37;2.20;;;;;;;;;;5085815;28;20884;-77
2021/06/13 10:32:20;;;;;;;2.90;2.10;;;;;;;;;;5081038;28;20800;-77
2021/06/13 10:34:49;;;;;;;2.90;2.50;;;;;;;;;;5080511;28;20449;-77
2021/06/13 10:37:15;;;;;;;2.83;2.30;;;;;;;;;;5071490;28;20409;-75
2021/06/13 10:39:41;;;;;;;6.80;2.60;;;;;;;;;;5081717;28;20426;-77
2021/06/13 10:42:11;;;;;;;3.87;2.03;;;;;;;;;;5084506;28;20414;-76
2021/06/13 10:44:44;;;;;;;3.90;1.97;;;;;;;;;;5098021;28;20394;-76
2021/06/13 10:47:15;;;;;;;3.63;2.27;;;;;;;;;;5081451;28;20490;-77
2021/06/13 10:49:43;;;;;;;2.20;2.00;;;;;;;;;;5081735;28;20415;-75
2021/06/13 10:52:12;;;;;;;4.00;1.97;;;;;;;;;;5083021;28;20433;-77
2021/06/13 10:54:39;;;;;;;1.90;1.80;;;;;;;;;;5080988;28;20436;-77
2021/06/13 10:57:05;;;;;;;4.13;2.10;;;;;;;;;;5083930;28;20489;-77
2021/06/13 10:59:35;;;;;;;2.50;2.03;;;;;;;;;;5081794;28;20552;-77
2021/06/13 11:02:09;;;;;;;6.23;2.30;;;;;;;;;;5079500;28;20450;-78
2021/06/13 11:04:41;;;;;;;3.63;2.33;;;;;;;;;;5079592;28;20541;-77
2021/06/13 11:07:07;;;;;;;2.23;2.03;;;;;;;;;;5081164;28;20446;-77
2021/06/13 11:09:33;;;;;;;3.67;2.53;;;;;;;;;;5076107;28;20407;-74
2021/06/13 11:11:59;;;;;;;2.50;2.30;;;;;;;;;;5084805;28;20556;-77
2021/06/13 11:14:30;;;;;;;3.80;2.40;;;;;;;;;;5080411;28;20444;-76
2021/06/13 11:16:58;;;;;;;5.40;2.50;;;;;;;;;;5080491;28;20450;-77
2021/06/13 11:19:24;;;;;;;6.10;3.17;;;;;;;;;;5081212;28;20433;-76
2021/06/13 11:21:51;;;;;;;5.70;2.40;;;;;;;;;;5080938;28;20438;-77
2021/06/13 11:24:36;;;;;;;3.73;2.80;;;;;;;;;;5081551;28;20448;-76
2021/06/13 11:27:04;;;;;;;5.83;2.50;;;;;;;;;;5084358;28;20421;-77
2021/06/13 11:29:50;;;;;;;2.33;1.83;;;;;;;;;;5080364;28;20437;-77
2021/06/13 11:32:17;;;;;;;3.80;2.60;;;;;;;;;;5078776;28;20457;-76
2021/06/13 11:34:47;;;;;;;2.87;2.30;;;;;;;;;;5080607;28;20582;-75
2021/06/13 11:37:23;;;;;;;4.90;3.27;;;;;;;;;;5079975;28;20430;-77
2021/06/13 11:39:56;;;;;;;2.90;2.10;;;;;;;;;;5080514;28;20459;-77
2021/06/13 11:42:22;;;;;;;2.23;2.03;;;;;;;;;;5081015;28;20444;-77
2021/06/13 11:44:49;;;;;;;3.50;2.50;;;;;;;;;;5082618;28;20420;-75
2021/06/13 11:47:30;;;;;;;4.57;2.60;;;;;;;;;;5080778;28;20549;-75
2021/06/13 11:49:56;;;;;;;3.07;2.87;;;;;;;;;;5081276;28;20465;-77
2021/06/13 11:52:42;;;;;;;2.70;2.50;;;;;;;;;;5078929;28;20457;-75
2021/06/13 11:55:09;;;;;;;3.27;2.30;;;;;;;;;;5079028;28;20466;-77
2021/06/13 11:57:35;;;;;;;2.50;2.30;;;;;;;;;;5079628;28;20431;-78
2021/06/13 12:00:14;;;;;;;2.13;1.93;;;;;;;;;;5084361;28;20421;-77
2021/06/13 12:02:41;;;;;;;2.10;1.80;;;;;;;;;;5083426;28;20421;-78
2021/06/13 12:05:07;;;;;;;2.90;1.70;;;;;;;;;;5078684;28;20432;-77
2021/06/13 12:07:40;;;;;;;2.13;1.73;;;;;;;;;;5080033;28;20435;-74
2021/06/13 12:10:20;;;;;;;3.97;1.77;;;;;;;;;;5080023;28;20469;-76
2021/06/13 12:12:46;;;;;;;2.60;2.40;;;;;;;;;;5076076;28;20438;-77
2021/06/13 12:15:15;;;;;;;2.23;1.83;;;;;;;;;;5081494;28;20449;-77
2021/06/13 12:17:41;;;;;;;1.90;1.50;;;;;;;;;;5082476;28;20421;-77
2021/06/13 12:20:07;;;;;;;1.50;1.40;;;;;;;;;;5080531;28;20436;-76
2021/06/13 12:23:00;;;;;;;2.80;2.37;;;;;;;;;;5079619;28;20449;-77
2021/06/13 12:28:12;;;;;;;2.33;2.07;;;;;;;;;;5079006;28;20437;-76
2021/06/13 12:30:39;;;;;;;8.00;3.10;;;;;;;;;;5080685;28;20710;-78
2021/06/13 12:33:12;;;;;;;4.13;2.30;;;;;;;;;;5082122;28;20415;-77
2021/06/13 12:35:43;;;;;;;2.03;1.67;;;;;;;;;;5082478;28;20458;-77
2021/06/13 12:38:13;;;;;;;2.53;1.70;;;;;;;;;;5079831;28;20422;-77
2021/06/13 12:40:59;;;;;;;1.70;1.60;;;;;;;;;;5079631;28;20433;-78
2021/06/13 12:43:44;;;;;;;1.70;1.60;;;;;;;;;;5086271;28;20430;-77
2021/06/13 12:46:11;;;;;;;1.80;1.57;;;;;;;;;;5081374;28;20441;-77
2021/06/13 12:48:37;;;;;;;2.70;1.70;;;;;;;;;;5078916;28;20811;-78
2021/06/13 12:51:03;;;;;;;2.70;2.00;;;;;;;;;;5082719;28;20418;-77
2021/06/13 12:53:33;;;;;;;2.57;2.10;;;;;;;;;;5078388;28;20927;-77
2021/06/13 12:56:00;;;;;;;2.33;1.90;;;;;;;;;;5079444;28;20435;-77
2021/06/13 12:58:28;;;;;;;2.03;1.70;;;;;;;;;;5077913;28;21046;-76
2021/06/13 13:00:56;;;;;;;2.37;2.17;;;;;;;;;;5079368;28;20436;-78
2021/06/13 13:03:22;;;;;;;2.70;2.13;;;;;;;;;;5080227;28;20419;-77
2021/06/13 13:06:08;;;;;;;1.73;1.60;;;;;;;;;;5082483;28;20966;-75
2021/06/13 13:08:43;;;;;;;2.70;2.23;;;;;;;;;;5085344;28;20414;-78
2021/06/13 13:11:20;;;;;;;2.50;2.03;;;;;;;;;;5083487;28;20453;-77
2021/06/13 13:13:50;;;;;;;4.13;1.77;;;;;;;;;;5083241;28;20469;-77
2021/06/13 13:16:36;;;;;;;1.93;1.80;;;;;;;;;;5072358;28;20450;-77
2021/06/13 13:19:02;;;;;;;1.63;1.43;;;;;;;;;;5083264;28;20440;-85
2021/06/13 13:21:33;;;;;;;2.73;1.73;;;;;;;;;;5082899;28;21248;-81
2021/06/13 13:23:59;;;;;;;1.80;1.53;;;;;;;;;;5086815;28;20484;-81
2021/06/13 13:26:25;;;;;;;1.67;1.57;;;;;;;;;;5082397;28;20449;-83
2021/06/13 13:28:52;;;;;;;1.50;1.40;;;;;;;;;;5082642;28;20445;-83
2021/06/13 13:31:20;;;;;;;3.37;1.70;;;;;;;;;;5084713;28;21115;-83
2021/06/13 13:33:52;;;;;;;2.00;1.67;;;;;;;;;;5082998;28;20459;-83
2021/06/13 13:36:29;;;;;;;2.63;1.53;;;;;;;;;;5083951;28;20433;-80
2021/06/13 13:38:56;;;;;;;1.80;1.20;;;;;;;;;;5085333;28;20412;-82
2021/06/13 13:41:22;;;;;;;1.90;1.30;;;;;;;;;;5081002;28;20430;-83
2021/06/13 13:43:56;;;;;;;1.97;1.33;;;;;;;;;;5082662;28;20445;-81
2021/06/13 13:46:32;;;;;;;1.50;1.30;;;;;;;;;;5083006;28;21573;-80
2021/06/13 13:48:59;;;;;;;2.17;1.10;;;;;;;;;;5081493;28;20666;-82
2021/06/13 13:51:25;;;;;;;1.30;1.20;;;;;;;;;;5084116;28;20423;-81
2021/06/13 13:53:53;;;;;;;1.60;1.43;;;;;;;;;;5094824;28;20476;-82
2021/06/13 13:56:21;;;;;;;2.93;1.30;;;;;;;;;;5082345;28;20434;-79
2021/06/13 13:58:48;;;;;;;1.37;1.27;;;;;;;;;;5081136;28;20426;-80
2021/06/13 14:01:14;;;;;;;3.93;1.50;;;;;;;;;;5081927;28;20442;-81
2021/06/13 14:03:41;;;;;;;1.87;1.20;;;;;;;;;;5081403;28;20433;-81
2021/06/13 14:06:07;;;;;;;1.50;1.40;;;;;;;;;;5084493;28;20422;-80
2021/06/13 14:08:40;;;;;;;1.47;1.27;;;;;;;;;;5083556;28;20399;-82
2021/06/13 14:11:07;;;;;;;1.40;1.20;;;;;;;;;;5082079;28;20468;-82
2021/06/13 14:13:33;;;;;;;1.77;1.40;;;;;;;;;;5084270;28;20420;-81
2021/06/13 14:15:59;;;;;;;3.53;1.43;;;;;;;;;;5081572;28;20460;-81
2021/06/13 14:18:25;;;;;;;1.40;1.20;;;;;;;;;;5081089;28;20417;-83
2021/06/13 14:20:51;;;;;;;1.80;1.30;;;;;;;;;;5085917;28;20408;-84
2021/06/13 14:23:17;;;;;;;1.53;1.43;;;;;;;;;;5081565;28;20447;-80
2021/06/13 14:25:43;;;;;;;1.40;1.30;;;;;;;;;;5082014;28;20439;-80
2021/06/13 14:28:09;;;;;;;1.97;1.50;;;;;;;;;;5083267;28;20461;-79
2021/06/13 14:30:36;;;;;;;3.40;1.77;;;;;;;;;;5082224;28;20429;-81
2021/06/13 14:33:02;;;;;;;2.00;1.50;;;;;;;;;;5084518;28;20430;-81
2021/06/13 14:35:29;;;;;;;2.50;1.53;;;;;;;;;;5081716;28;21003;-83
2021/06/13 14:37:55;;;;;;;2.40;1.60;;;;;;;;;;5081485;28;20432;-82
2021/06/13 14:40:21;;;;;;;1.60;1.50;;;;;;;;;;5079817;28;20436;-81
2021/06/13 14:42:47;;;;;;;1.53;1.43;;;;;;;;;;5081122;28;20613;-81
2021/06/13 14:45:15;;;;;;;1.40;1.30;;;;;;;;;;5084511;28;20467;-81
2021/06/13 14:47:41;;;;;;;2.30;1.40;;;;;;;;;;5084816;28;20460;-81
2021/06/13 14:50:07;;;;;;;1.67;1.17;;;;;;;;;;5082926;28;20443;-80
2021/06/13 14:52:33;;;;;;;3.00;1.57;;;;;;;;;;5080706;28;20478;-81